Mariazell Airport LOGM

Flugplatz Daten

Name: Mariazell Airport

Ident: LOGM

Lat: 47,78829956

Long: 15,30169964

Platzhöhe: 2822 ft

IataCode:

City: Mariazell

Metar

2021/08/26 15:20
LOGM 261520Z AUTO 30003KT 9999 -RA FEW031 OVC049 11/08 Q1013

Taf

Gewünschte Webcam nicht vorhanden? Dann fügen Sie eine hinzu. Sie wird dann so schnell wie möglich freigeschaltet
Url: Title: